Lexington, KY (40502)

12:38 AM EST on December 05, 2016 (GMT -0500)
The Island Weather | | Change Station

Elev 968 ft 38.00 °N, 84.46 °W | Updated 8 seconds ago

Overcast
Overcast
43.9 °F
Feels Like 44 °F
N
2.0
Wind Variable Wind from SW

Today
High -- | Low -- °F
--% Chance of Precip.
Yesterday
High -- | Low -- °F
Precip. -- in
Pressure 29.99 in
Visibility 10.0 miles
Clouds Overcast 1000 ft
Windchill 44 °F
Dew Point 43 °F
Humidity 98%
Rainfall 0.00 in
Snow Depth Not available.
7:39 AM 5:18 PM
Waxing Crescent, 28% visible
SPECI KLEX 050504Z 25012KT 10SM OVC010 07/05 A2999 RMK AO2 T00720050
Pressure 29.99 in
Visibility 10.0 miles
Clouds Overcast 1000 ft
Windchill 44 °F
Dew Point 43 °F
Humidity 98%
Rainfall 0.00 in
Snow Depth Not available.
7:39 AM 5:18 PM
Waxing Crescent, 28% visible
SPECI KLEX 050504Z 25012KT 10SM OVC010 07/05 A2999 RMK AO2 T00720050

10-Day Weather Forecast

Almanac

Astronomy

Dec. 05, 2016 Rise Set
Actual Time
Civil Twilight
Nautical Twilight
Astronomical Twilight
Moon
Length of Visible Light
Length of Day
Tomorrow will be .
, % of the Moon is Illuminated

Today's Extremes

State Highs State Lows

Community

WunderPhotos

Upload Photos

1,955,765 photos uploaded!

WunderBlog® & News

Nearby

Air Quality

  Air Quality AQ Index Pollutant
Not available.

Snow Depth

Station Depth Elevation

Earthquake Activity

City Distance Mag. Time & Date
Minimum magnitude displayed is 2.5.

Coastal Water Temperatures

Place Temperature

Stations

Nearby Weather Stations

Station Location Temp. Windchill Dew Point Humidity Wind Precip. Elev Updated Type
                   

Watches & Warnings

There are currently no watches in effect.